createdAt,value
2023-05-09T00:02:12.345Z,100765.97
2023-05-09T00:04:39.433Z,100765.33
2023-05-09T00:07:07.540Z,100765.59
2023-05-09T00:09:34.594Z,100765.27
2023-05-09T00:12:02.762Z,100766.00
2023-05-09T00:14:29.942Z,100767.89
2023-05-09T00:16:59.485Z,100773.02
2023-05-09T00:19:26.637Z,100769.90
2023-05-09T00:21:54.286Z,100769.52
2023-05-09T00:24:21.671Z,100769.20
2023-05-09T00:26:49.042Z,100770.56
2023-05-09T00:29:16.157Z,100771.79
2023-05-09T00:31:43.245Z,100766.76
2023-05-09T00:34:10.497Z,100768.45
2023-05-09T00:36:37.619Z,100763.95
2023-05-09T00:39:05.802Z,100766.55
2023-05-09T00:41:32.876Z,100766.48
2023-05-09T00:44:00.201Z,100768.59
2023-05-09T00:46:27.230Z,100771.23
2023-05-09T00:48:54.281Z,100772.60
2023-05-09T00:51:21.922Z,100771.45
2023-05-09T00:53:49.398Z,100769.85
2023-05-09T00:56:16.653Z,100771.67
2023-05-09T00:58:43.963Z,100773.08
2023-05-09T01:01:11.797Z,100777.92
2023-05-09T01:03:39.794Z,100776.27
2023-05-09T01:06:08.586Z,100774.08
2023-05-09T01:08:45.573Z,100775.20
2023-05-09T01:11:29.488Z,100776.98
2023-05-09T01:14:19.194Z,100776.11
2023-05-09T01:16:55.236Z,100777.11
2023-05-09T01:19:46.136Z,100773.67
2023-05-09T01:22:13.729Z,100775.75
2023-05-09T01:24:48.336Z,100778.67
2023-05-09T01:27:22.811Z,100774.73
2023-05-09T01:29:57.289Z,100775.45
2023-05-09T01:32:28.393Z,100774.43
2023-05-09T01:34:56.372Z,100772.73
2023-05-09T01:37:25.493Z,100773.32
2023-05-09T01:39:53.622Z,100771.66
2023-05-09T01:42:20.855Z,100774.75
2023-05-09T01:44:48.316Z,100771.96
2023-05-09T01:47:16.722Z,100771.53
2023-05-09T01:49:43.978Z,100776.14
2023-05-09T01:52:13.706Z,100771.69
2023-05-09T01:54:40.783Z,100772.10
2023-05-09T01:57:08.037Z,100772.60
2023-05-09T01:59:35.394Z,100770.45
2023-05-09T02:02:03.493Z,100773.02
2023-05-09T02:04:30.748Z,100773.70
2023-05-09T02:06:57.773Z,100771.38
2023-05-09T02:09:24.802Z,100776.10
2023-05-09T02:11:52.035Z,100773.42
2023-05-09T02:14:19.972Z,100776.09
2023-05-09T02:16:47.047Z,100776.14
2023-05-09T02:19:14.067Z,100774.34
2023-05-09T02:21:41.375Z,100776.56
2023-05-09T02:24:08.684Z,100775.47
2023-05-09T02:26:35.997Z,100779.42
2023-05-09T02:29:03.833Z,100778.71
2023-05-09T02:31:30.827Z,100780.52
2023-05-09T02:33:59.412Z,100783.96
2023-05-09T02:36:26.854Z,100784.14
2023-05-09T02:38:53.872Z,100785.36
2023-05-09T02:41:21.975Z,100782.64
2023-05-09T02:43:48.981Z,100781.16
2023-05-09T02:46:16.414Z,100782.51
2023-05-09T02:48:43.659Z,100782.80
2023-05-09T02:51:10.735Z,100782.68
2023-05-09T02:53:37.759Z,100780.85
2023-05-09T02:56:05.097Z,100779.92
2023-05-09T02:58:32.164Z,100780.27
2023-05-09T03:00:59.304Z,100780.63
2023-05-09T03:03:26.405Z,100783.05
2023-05-09T03:05:53.724Z,100782.58
2023-05-09T03:08:20.722Z,100784.72
2023-05-09T03:10:47.950Z,100782.92
2023-05-09T03:13:15.824Z,100785.11
2023-05-09T03:15:43.157Z,100787.62
2023-05-09T03:18:12.543Z,100790.48
2023-05-09T03:20:40.402Z,100793.48
2023-05-09T03:23:07.457Z,100792.75
2023-05-09T03:25:34.870Z,100797.46
2023-05-09T03:28:01.963Z,100801.17
2023-05-09T03:30:29.708Z,100801.14
2023-05-09T03:32:56.911Z,100801.70
2023-05-09T03:35:23.998Z,100802.41
2023-05-09T03:37:51.340Z,100802.95
2023-05-09T03:40:18.581Z,100799.82
2023-05-09T03:42:53.187Z,100797.27
2023-05-09T03:45:20.558Z,100799.51
2023-05-09T03:47:47.715Z,100802.50
2023-05-09T03:50:15.704Z,100799.52
2023-05-09T03:52:43.449Z,100804.77
2023-05-09T03:55:11.289Z,100808.02
2023-05-09T03:57:39.059Z,100810.02
2023-05-09T04:00:08.179Z,100811.13
2023-05-09T04:02:42.398Z,100815.07
2023-05-09T04:05:13.677Z,100812.37
2023-05-09T04:07:41.305Z,100816.95
2023-05-09T04:10:09.592Z,100816.59
2023-05-09T04:12:36.614Z,100817.08
2023-05-09T04:15:04.126Z,100817.83
2023-05-09T04:17:31.600Z,100820.40
2023-05-09T04:19:58.721Z,100824.81
2023-05-09T04:22:25.943Z,100825.95
2023-05-09T04:24:53.667Z,100824.87
2023-05-09T04:27:21.139Z,100825.16
2023-05-09T04:29:49.494Z,100820.77
2023-05-09T04:32:16.663Z,100824.99
2023-05-09T04:34:43.829Z,100826.42
2023-05-09T04:37:15.634Z,100827.19
2023-05-09T04:39:43.660Z,100825.28
2023-05-09T04:42:18.387Z,100824.09
2023-05-09T04:44:45.515Z,100825.47
2023-05-09T04:47:12.956Z,100823.49
2023-05-09T04:49:40.412Z,100826.92
2023-05-09T04:52:08.687Z,100828.48
2023-05-09T04:54:36.180Z,100828.96
2023-05-09T04:57:17.269Z,100828.20
2023-05-09T04:59:46.400Z,100830.24
2023-05-09T05:02:14.358Z,100829.42
2023-05-09T05:04:41.962Z,100833.62
2023-05-09T05:07:09.255Z,100835.23
2023-05-09T05:09:36.366Z,100837.52
2023-05-09T05:12:09.267Z,100835.54
2023-05-09T05:14:37.806Z,100832.92
2023-05-09T05:17:05.609Z,100830.27
2023-05-09T05:19:32.925Z,100832.81
2023-05-09T05:22:01.136Z,100831.16
2023-05-09T05:24:29.483Z,100832.45
2023-05-09T05:26:57.189Z,100830.66
2023-05-09T05:29:25.924Z,100830.45
2023-05-09T05:31:53.067Z,100830.99
2023-05-09T05:34:21.167Z,100832.19
2023-05-09T05:36:48.512Z,100829.30
2023-05-09T05:39:16.305Z,100827.77
2023-05-09T05:41:43.281Z,100829.73
2023-05-09T05:44:10.585Z,100831.62
2023-05-09T05:46:38.265Z,100830.09
2023-05-09T05:49:05.520Z,100832.70
2023-05-09T05:51:33.901Z,100829.08
2023-05-09T05:54:01.277Z,100833.31
2023-05-09T05:56:28.432Z,100830.03
2023-05-09T06:02:22.157Z,100829.43
2023-05-09T06:04:49.542Z,100826.29
2023-05-09T06:07:16.446Z,100835.94
2023-05-09T06:09:43.458Z,100836.66
2023-05-09T06:12:11.466Z,100836.30
2023-05-09T06:14:38.681Z,100837.23
2023-05-09T06:17:06.079Z,100831.30
2023-05-09T06:19:33.039Z,100829.95
2023-05-09T06:21:59.881Z,100828.31
2023-05-09T06:24:35.915Z,100829.64
2023-05-09T06:27:03.990Z,100827.20
2023-05-09T06:29:31.967Z,100830.38
2023-05-09T06:31:58.743Z,100828.98
2023-05-09T06:34:25.939Z,100828.05
2023-05-09T06:36:52.937Z,100833.79
2023-05-09T06:39:19.805Z,100831.75
2023-05-09T06:41:47.035Z,100829.29
2023-05-09T06:44:19.918Z,100826.14
2023-05-09T06:46:46.839Z,100824.34
2023-05-09T06:49:13.807Z,100821.41
2023-05-09T06:51:40.667Z,100819.66
2023-05-09T06:54:07.636Z,100821.96
2023-05-09T06:56:34.814Z,100817.80
2023-05-09T06:59:01.731Z,100815.64
2023-05-09T07:01:29.091Z,100815.16
2023-05-09T07:03:56.172Z,100812.91
2023-05-09T07:06:23.287Z,100804.59
2023-05-09T07:08:50.107Z,100803.58
2023-05-09T07:11:17.639Z,100799.62
2023-05-09T07:13:44.432Z,100797.27
2023-05-09T07:16:11.531Z,100797.70
2023-05-09T07:18:39.778Z,100793.02
2023-05-09T07:21:07.081Z,100787.92
2023-05-09T07:23:34.772Z,100788.33
2023-05-09T07:26:01.791Z,100787.70
2023-05-09T07:28:29.139Z,100788.13
2023-05-09T07:30:56.565Z,100789.14
2023-05-09T07:33:23.850Z,100784.85
2023-05-09T07:35:52.429Z,100778.33
2023-05-09T07:38:19.170Z,100767.20
2023-05-09T07:40:46.312Z,100763.94
2023-05-09T07:43:13.753Z,100763.27
2023-05-09T07:45:41.952Z,100757.02
2023-05-09T07:48:09.138Z,100767.24
2023-05-09T07:50:36.362Z,100763.39
2023-05-09T07:53:03.417Z,100751.58
2023-05-09T07:55:30.434Z,100752.73
2023-05-09T07:57:57.532Z,100748.84
2023-05-09T08:00:24.456Z,100749.91
2023-05-09T08:02:51.984Z,100747.70
2023-05-09T08:05:19.825Z,100743.30
2023-05-09T08:07:46.753Z,100735.65
2023-05-09T08:10:13.634Z,100732.67
2023-05-09T08:12:40.805Z,100727.77
2023-05-09T08:15:08.294Z,100730.96
2023-05-09T08:17:35.578Z,100731.76
2023-05-09T08:20:05.037Z,100734.52
2023-05-09T08:22:32.312Z,100734.02
2023-05-09T08:24:59.239Z,100733.42
2023-05-09T08:27:26.056Z,100726.52
2023-05-09T08:29:53.929Z,100724.56
2023-05-09T08:32:22.409Z,100732.44
2023-05-09T08:34:49.152Z,100731.55
2023-05-09T08:37:16.266Z,100732.27
2023-05-09T08:39:43.351Z,100728.77
2023-05-09T08:42:10.631Z,100724.92
2023-05-09T08:44:37.916Z,100723.81
2023-05-09T08:47:05.279Z,100723.03
2023-05-09T08:49:32.966Z,100721.92
2023-05-09T08:51:59.720Z,100724.91
2023-05-09T08:54:26.796Z,100728.26
2023-05-09T08:56:53.608Z,100724.54
2023-05-09T08:59:23.487Z,100721.98
2023-05-09T09:01:50.635Z,100718.19
2023-05-09T09:04:17.460Z,100718.89
2023-05-09T09:06:44.367Z,100709.21
2023-05-09T09:09:11.752Z,100715.16
2023-05-09T09:11:38.891Z,100715.91
2023-05-09T09:14:12.544Z,100721.98
2023-05-09T09:16:43.801Z,100722.39
2023-05-09T09:19:13.404Z,100716.77
2023-05-09T09:21:41.986Z,100721.77
2023-05-09T09:24:09.268Z,100713.20
2023-05-09T09:26:45.001Z,100705.89
2023-05-09T09:29:12.843Z,100715.53
2023-05-09T09:31:40.539Z,100699.79
2023-05-09T09:34:07.323Z,100701.27
2023-05-09T09:36:36.200Z,100699.20
2023-05-09T09:39:04.238Z,100704.48
2023-05-09T09:41:36.663Z,100706.61
2023-05-09T09:44:07.822Z,100702.92
2023-05-09T09:46:47.154Z,100700.36
2023-05-09T09:49:15.556Z,100696.64
2023-05-09T09:51:42.954Z,100695.80
2023-05-09T09:54:11.036Z,100696.02
2023-05-09T09:56:42.055Z,100696.77
2023-05-09T09:59:10.770Z,100696.05
2023-05-09T10:02:12.332Z,100696.52
2023-05-09T10:04:43.459Z,100702.59
2023-05-09T10:07:12.822Z,100707.75
2023-05-09T10:09:43.230Z,100703.56
2023-05-09T10:12:10.439Z,100704.46
2023-05-09T10:14:37.986Z,100706.44
2023-05-09T10:17:05.546Z,100702.64
2023-05-09T10:19:32.722Z,100702.56
2023-05-09T10:22:06.362Z,100701.64
2023-05-09T10:24:42.101Z,100698.16
2023-05-09T10:27:10.611Z,100698.38
2023-05-09T10:29:40.932Z,100694.43
2023-05-09T10:32:12.891Z,100693.80
2023-05-09T10:34:40.612Z,100695.35
2023-05-09T10:37:08.017Z,100686.40
2023-05-09T10:39:36.092Z,100681.54
2023-05-09T10:42:03.266Z,100682.61
2023-05-09T10:44:30.215Z,100684.37
2023-05-09T10:46:57.509Z,100677.95
2023-05-09T10:49:24.341Z,100666.70
2023-05-09T10:51:51.678Z,100664.02
2023-05-09T10:54:30.743Z,100662.91
2023-05-09T10:56:58.009Z,100651.48
2023-05-09T10:59:46.032Z,100656.95
2023-05-09T11:02:14.177Z,100647.95
2023-05-09T11:04:41.001Z,100651.83
2023-05-09T11:07:29.657Z,100653.71
2023-05-09T11:10:10.047Z,100653.28
2023-05-09T11:12:59.210Z,100651.43
2023-05-09T11:15:29.561Z,100650.09
2023-05-09T11:18:12.022Z,100657.79
2023-05-09T11:20:42.580Z,100656.48
2023-05-09T11:23:11.318Z,100657.59
2023-05-09T11:25:41.169Z,100655.58
2023-05-09T11:28:08.265Z,100654.16
2023-05-09T11:30:43.256Z,100653.88
2023-05-09T11:33:33.008Z,100645.02
2023-05-09T11:36:19.666Z,100648.11
2023-05-09T11:38:47.023Z,100636.98
2023-05-09T11:41:14.271Z,100631.30
2023-05-09T11:43:42.149Z,100634.34
2023-05-09T11:46:09.563Z,100637.11
2023-05-09T11:48:40.397Z,100628.83
2023-05-09T11:51:07.481Z,100628.17
2023-05-09T11:53:35.725Z,100627.45
2023-05-09T11:56:04.044Z,100624.66
2023-05-09T11:58:31.532Z,100626.17
2023-05-09T12:00:58.333Z,100621.15
2023-05-09T12:03:25.850Z,100618.29
2023-05-09T12:05:53.988Z,100618.02
2023-05-09T12:08:22.253Z,100609.52
2023-05-09T12:10:49.193Z,100612.96
2023-05-09T12:13:19.111Z,100607.59
2023-05-09T12:15:46.195Z,100601.19
2023-05-09T12:18:13.987Z,100602.85
2023-05-09T12:20:46.875Z,100596.09
2023-05-09T12:23:13.973Z,100596.40
2023-05-09T12:26:01.047Z,100589.61
2023-05-09T12:29:32.977Z,100591.13
2023-05-09T12:32:00.551Z,100586.41
2023-05-09T12:34:27.497Z,100576.31
2023-05-09T12:36:54.525Z,100580.29
2023-05-09T12:39:22.504Z,100575.85
2023-05-09T12:42:00.573Z,100573.60
2023-05-09T12:44:30.019Z,100577.62
2023-05-09T12:46:59.069Z,100577.43
2023-05-09T12:49:26.382Z,100572.17
2023-05-09T12:51:54.397Z,100569.14
2023-05-09T12:54:22.828Z,100565.80
2023-05-09T12:56:53.481Z,100566.29
2023-05-09T12:59:24.287Z,100560.46
2023-05-09T13:02:01.241Z,100559.46
2023-05-09T13:04:28.340Z,100553.11
2023-05-09T13:06:57.000Z,100557.31
2023-05-09T13:09:24.493Z,100551.39
2023-05-09T13:12:23.919Z,100555.16
2023-05-09T13:14:51.291Z,100555.20
2023-05-09T13:17:18.251Z,100555.50
2023-05-09T13:19:45.225Z,100554.96
2023-05-09T13:22:12.542Z,100557.43
2023-05-09T13:24:39.474Z,100555.90
2023-05-09T13:27:06.647Z,100556.51
2023-05-09T13:29:33.936Z,100557.02
2023-05-09T13:32:00.812Z,100556.41
2023-05-09T13:34:28.270Z,100555.94
2023-05-09T13:36:55.413Z,100555.16
2023-05-09T13:39:22.245Z,100555.58
2023-05-09T13:41:52.424Z,100554.90
2023-05-09T13:44:19.641Z,100551.78
2023-05-09T13:46:46.624Z,100553.38
2023-05-09T13:49:13.563Z,100549.98
2023-05-09T13:51:40.930Z,100548.94
2023-05-09T13:54:12.137Z,100551.70
2023-05-09T13:56:39.495Z,100550.59
2023-05-09T13:59:06.568Z,100551.66
2023-05-09T14:01:33.699Z,100551.16
2023-05-09T14:04:00.935Z,100552.23
2023-05-09T14:06:30.898Z,100546.55
2023-05-09T14:08:57.866Z,100546.84
2023-05-09T14:11:25.529Z,100541.59
2023-05-09T14:13:52.515Z,100542.77
2023-05-09T14:16:20.569Z,100537.88
2023-05-09T14:18:48.109Z,100538.66
2023-05-09T14:21:15.132Z,100537.06
2023-05-09T14:23:42.857Z,100538.55
2023-05-09T14:26:09.888Z,100539.09
2023-05-09T14:28:37.700Z,100535.20
2023-05-09T14:31:04.747Z,100538.08
2023-05-09T14:33:32.385Z,100537.30
2023-05-09T14:36:02.148Z,100537.29
2023-05-09T14:38:29.198Z,100531.17
2023-05-09T14:40:56.272Z,100534.13
2023-05-09T14:43:23.789Z,100529.52
2023-05-09T14:45:51.090Z,100529.78
2023-05-09T14:48:18.293Z,100532.83
2023-05-09T14:50:45.196Z,100534.23
2023-05-09T14:53:12.365Z,100529.44
2023-05-09T14:55:41.231Z,100529.98
2023-05-09T14:58:08.487Z,100521.63
2023-05-09T15:00:36.283Z,100526.48
2023-05-09T15:03:03.855Z,100521.86
2023-05-09T15:05:31.250Z,100523.59
2023-05-09T15:07:58.528Z,100522.38
2023-05-09T15:10:27.143Z,100520.96
2023-05-09T15:12:54.733Z,100520.21
2023-05-09T15:15:25.335Z,100522.02
2023-05-09T15:17:52.671Z,100521.41
2023-05-09T15:20:20.048Z,100524.93
2023-05-09T15:22:47.161Z,100521.07
2023-05-09T15:25:14.406Z,100524.97
2023-05-09T15:27:41.588Z,100524.23
2023-05-09T15:30:09.540Z,100526.17
2023-05-09T15:32:37.965Z,100525.83
2023-05-09T15:35:05.690Z,100528.09
2023-05-09T15:37:35.602Z,100526.15
2023-05-09T15:40:03.456Z,100526.50
2023-05-09T15:42:31.295Z,100524.29
2023-05-09T15:44:58.393Z,100519.64
2023-05-09T15:47:25.511Z,100515.88
2023-05-09T15:49:52.898Z,100514.77
2023-05-09T15:52:19.840Z,100521.14
2023-05-09T15:54:46.846Z,100517.05
2023-05-09T15:57:14.380Z,100514.95
2023-05-09T15:59:41.255Z,100514.20
2023-05-09T16:02:08.630Z,100515.09
2023-05-09T16:04:36.169Z,100517.15
2023-05-09T16:07:03.229Z,100512.70
2023-05-09T16:09:30.370Z,100510.31
2023-05-09T16:11:57.257Z,100509.33
2023-05-09T16:14:24.348Z,100505.74
2023-05-09T16:16:53.134Z,100505.80
2023-05-09T16:19:21.182Z,100503.80
2023-05-09T16:21:48.205Z,100506.48
2023-05-09T16:24:15.462Z,100503.19
2023-05-09T16:26:42.513Z,100506.71
2023-05-09T16:29:09.537Z,100506.54
2023-05-09T16:31:36.625Z,100509.65
2023-05-09T16:34:03.861Z,100508.11
2023-05-09T16:36:32.218Z,100509.63
2023-05-09T16:38:59.174Z,100507.95
2023-05-09T16:41:26.588Z,100503.28
2023-05-09T16:43:53.480Z,100501.13
2023-05-09T16:46:20.839Z,100505.80
2023-05-09T16:48:50.172Z,100506.91
2023-05-09T16:51:17.742Z,100509.24
2023-05-09T16:53:44.949Z,100510.18
2023-05-09T16:56:12.150Z,100512.95
2023-05-09T16:58:39.251Z,100511.88
2023-05-09T17:01:06.616Z,100513.10
2023-05-09T17:03:33.760Z,100513.74
2023-05-09T17:06:00.757Z,100510.38
2023-05-09T17:08:27.835Z,100513.05
2023-05-09T17:10:55.403Z,100515.38
2023-05-09T17:13:22.836Z,100517.77
2023-05-09T17:15:52.133Z,100521.58
2023-05-09T17:18:33.240Z,100519.89
2023-05-09T17:21:01.104Z,100522.36
2023-05-09T17:23:27.943Z,100519.80
2023-05-09T17:25:54.874Z,100518.66
2023-05-09T17:28:21.928Z,100522.89
2023-05-09T17:30:48.693Z,100526.27
2023-05-09T17:33:16.076Z,100526.22
2023-05-09T17:35:43.533Z,100524.73
2023-05-09T17:38:10.360Z,100530.20
2023-05-09T17:40:37.633Z,100529.80
2023-05-09T17:43:04.480Z,100534.15
2023-05-09T17:45:31.707Z,100533.09
2023-05-09T17:48:00.811Z,100532.59
2023-05-09T17:50:27.996Z,100535.50
2023-05-09T17:52:56.847Z,100539.57
2023-05-09T17:55:23.828Z,100536.95
2023-05-09T17:57:51.353Z,100542.38
2023-05-09T18:00:19.097Z,100542.55
2023-05-09T18:02:47.427Z,100544.35
2023-05-09T18:05:14.223Z,100544.29
2023-05-09T18:07:41.216Z,100543.98
2023-05-09T18:10:08.923Z,100544.02
2023-05-09T18:12:37.305Z,100545.44
2023-05-09T18:18:07.465Z,100542.34
2023-05-09T18:20:34.830Z,100542.14
2023-05-09T18:23:01.897Z,100541.81
2023-05-09T18:25:29.380Z,100544.31
2023-05-09T18:27:56.864Z,100544.44
2023-05-09T18:30:23.834Z,100547.92
2023-05-09T18:32:51.355Z,100548.08
2023-05-09T18:35:18.474Z,100552.02
2023-05-09T18:37:45.577Z,100552.61
2023-05-09T18:40:15.813Z,100550.22
2023-05-09T18:42:49.890Z,100548.89
2023-05-09T18:45:17.301Z,100553.65
2023-05-09T18:47:44.573Z,100550.64
2023-05-09T18:50:13.868Z,100544.95
2023-05-09T18:52:41.140Z,100548.98
2023-05-09T18:55:08.746Z,100549.81
2023-05-09T18:57:36.114Z,100556.50
2023-05-09T19:00:03.773Z,100553.77
2023-05-09T19:02:30.875Z,100549.79
2023-05-09T19:04:57.951Z,100544.39
2023-05-09T19:07:25.025Z,100541.11
2023-05-09T19:09:52.573Z,100542.44
2023-05-09T19:12:19.558Z,100537.42
2023-05-09T19:14:46.738Z,100540.33
2023-05-09T19:17:13.919Z,100538.42
2023-05-09T19:19:41.070Z,100539.66
2023-05-09T19:22:08.321Z,100538.67
2023-05-09T19:24:35.373Z,100538.88
2023-05-09T19:27:02.578Z,100532.36
2023-05-09T19:29:29.824Z,100539.90
2023-05-09T19:31:56.826Z,100536.38
2023-05-09T19:34:24.115Z,100537.08
2023-05-09T19:36:51.487Z,100538.45
2023-05-09T19:39:18.721Z,100539.75
2023-05-09T19:41:46.484Z,100542.15
2023-05-09T19:44:13.740Z,100537.60
2023-05-09T19:46:43.153Z,100537.73
2023-05-09T19:49:10.655Z,100543.61
2023-05-09T19:51:37.871Z,100549.51
2023-05-09T19:54:05.271Z,100547.63
2023-05-09T19:56:32.321Z,100541.75
2023-05-09T19:58:59.651Z,100540.93
2023-05-09T20:01:26.717Z,100539.31
2023-05-09T20:03:53.973Z,100537.98
2023-05-09T20:09:06.791Z,100539.45
2023-05-09T20:11:34.022Z,100536.52
2023-05-09T20:14:01.309Z,100530.46
2023-05-09T20:16:28.676Z,100530.38
2023-05-09T20:18:55.807Z,100525.75
2023-05-09T20:21:22.934Z,100520.67
2023-05-09T20:23:50.138Z,100517.20
2023-05-09T20:26:17.202Z,100517.59
2023-05-09T20:28:44.255Z,100515.98
2023-05-09T20:31:11.877Z,100517.66
2023-05-09T20:33:40.209Z,100516.69
2023-05-09T20:36:09.590Z,100518.83
2023-05-09T20:38:36.587Z,100518.77
2023-05-09T20:41:04.278Z,100522.09
2023-05-09T20:43:31.460Z,100522.80
2023-05-09T20:45:58.768Z,100522.55
2023-05-09T20:48:26.093Z,100521.02
2023-05-09T20:50:53.049Z,100520.18
2023-05-09T20:53:20.293Z,100516.79
2023-05-09T20:55:49.554Z,100518.40
2023-05-09T20:58:17.620Z,100517.23
2023-05-09T21:00:47.229Z,100516.01
2023-05-09T21:03:14.548Z,100520.26
2023-05-09T21:05:41.640Z,100515.55
2023-05-09T21:08:08.718Z,100519.98
2023-05-09T21:10:35.970Z,100517.86
2023-05-09T21:13:04.534Z,100517.25
2023-05-09T21:15:31.558Z,100516.05
2023-05-09T21:17:58.854Z,100516.50
2023-05-09T21:20:26.418Z,100521.89
2023-05-09T21:22:53.701Z,100516.25
2023-05-09T21:25:20.952Z,100512.68
2023-05-09T21:27:47.924Z,100513.08
2023-05-09T21:30:15.000Z,100511.77
2023-05-09T21:32:42.207Z,100507.37
2023-05-09T21:35:12.800Z,100502.72
2023-05-09T21:37:39.965Z,100500.90
2023-05-09T21:40:07.986Z,100498.78
2023-05-09T21:42:36.141Z,100494.10
2023-05-09T21:45:03.909Z,100495.33
2023-05-09T21:47:31.445Z,100493.36
2023-05-09T21:49:58.641Z,100491.70
2023-05-09T21:52:25.594Z,100485.74
2023-05-09T21:54:52.667Z,100486.23
2023-05-09T21:57:19.638Z,100484.27
2023-05-09T21:59:46.714Z,100485.10
2023-05-09T22:02:14.587Z,100484.91
2023-05-09T22:04:41.633Z,100485.02
2023-05-09T22:07:08.712Z,100481.16
2023-05-09T22:09:35.690Z,100476.63
2023-05-09T22:12:02.839Z,100476.08
2023-05-09T22:14:29.779Z,100476.33
2023-05-09T22:16:56.704Z,100477.80
2023-05-09T22:19:23.704Z,100474.98
2023-05-09T22:21:50.856Z,100471.83
2023-05-09T22:24:18.186Z,100470.88
2023-05-09T22:26:45.192Z,100468.86
2023-05-09T22:29:12.258Z,100470.05
2023-05-09T22:31:39.370Z,100468.31
2023-05-09T22:34:06.384Z,100466.55
2023-05-09T22:36:33.646Z,100464.27
2023-05-09T22:39:00.705Z,100465.19
2023-05-09T22:41:27.714Z,100465.02
2023-05-09T22:43:55.045Z,100462.14
2023-05-09T22:46:22.842Z,100463.14
2023-05-09T22:48:50.040Z,100458.23
2023-05-09T22:51:17.070Z,100455.49
2023-05-09T22:53:44.217Z,100455.58
2023-05-09T22:56:11.706Z,100452.51
2023-05-09T22:58:38.676Z,100456.89
2023-05-09T23:01:06.236Z,100454.54
2023-05-09T23:03:33.302Z,100453.58
2023-05-09T23:06:00.294Z,100453.30
2023-05-09T23:08:27.365Z,100453.85
2023-05-09T23:10:54.322Z,100452.33
2023-05-09T23:13:21.599Z,100448.48
2023-05-09T23:15:48.710Z,100446.12
2023-05-09T23:18:15.940Z,100444.55
2023-05-09T23:20:42.999Z,100447.46
2023-05-09T23:23:10.334Z,100446.38
2023-05-09T23:25:38.971Z,100447.65
2023-05-09T23:28:05.868Z,100446.64
2023-05-09T23:30:32.887Z,100444.59
2023-05-09T23:32:59.895Z,100442.21
2023-05-09T23:35:26.968Z,100442.52
2023-05-09T23:37:54.126Z,100439.77
2023-05-09T23:40:21.430Z,100435.81
2023-05-09T23:42:48.496Z,100435.16
2023-05-09T23:45:15.497Z,100430.80
2023-05-09T23:47:42.743Z,100432.23
2023-05-09T23:50:10.809Z,100430.44
2023-05-09T23:52:37.792Z,100431.95
2023-05-09T23:55:05.462Z,100427.73
2023-05-09T23:57:32.612Z,100429.95
2023-05-09T23:59:59.811Z,100428.39
